Terminal Aerodrome Forecast
Issued by NWS Omaha/Valley, NE

Home | Current Version | Previous Version | Text Only | Print | Product List | Glossary Off
Versions: 1 2 3 4 5 6 7 8 9 10 11 12 13 14 15 16 17 18 19 20 21 22 23 24 25 26 27 28 29 30 31 32 33 34 35 36 37 38 39 40 41 42 43 44 45 46 47 48

000
FTUS43 KOAX 110520
TAFOFK
TAF
KOFK 110520Z 1106/1206 16012KT P6SM VCSH BKN120
      TEMPO 1108/1112 5SM -TSRA OVC040CB
     FM111300 18009KT P6SM BKN025
     FM111700 18009KT P6SM BKN050=

USA.gov is the U.S. government's official web portal to all federal, state and local government web resources and services.